createdAt,value
2024-01-16T00:01:02.881Z,23.42
2024-01-16T00:11:08.295Z,23.46
2024-01-16T00:21:13.833Z,23.47
2024-01-16T00:31:19.153Z,23.47
2024-01-16T00:41:24.243Z,23.47
2024-01-16T00:52:49.612Z,23.55
2024-01-16T01:04:14.178Z,23.56
2024-01-16T01:14:18.805Z,23.52
2024-01-16T01:24:24.361Z,23.52
2024-01-16T01:34:29.892Z,23.52
2024-01-16T01:44:35.395Z,23.39
2024-01-16T01:54:40.964Z,23.31
2024-01-16T02:04:46.501Z,23.30
2024-01-16T02:14:51.950Z,23.22
2024-01-16T02:24:57.695Z,23.18
2024-01-16T02:35:03.192Z,23.13
2024-01-16T02:45:08.908Z,23.10
2024-01-16T02:55:14.579Z,23.05
2024-01-16T03:05:20.139Z,22.99
2024-01-16T03:15:25.922Z,22.97
2024-01-16T03:25:31.466Z,22.94
2024-01-16T03:35:37.227Z,22.93
2024-01-16T03:45:42.924Z,22.90
2024-01-16T03:55:48.401Z,22.86
2024-01-16T04:05:54.023Z,22.85
2024-01-16T04:15:59.838Z,22.82
2024-01-16T04:26:05.358Z,22.77
2024-01-16T04:36:11.019Z,22.76
2024-01-16T04:46:16.780Z,22.80
2024-01-16T04:56:22.196Z,22.79
2024-01-16T05:06:27.905Z,22.75
2024-01-16T05:16:33.473Z,22.72
2024-01-16T05:26:39.045Z,22.69
2024-01-16T05:36:44.697Z,22.74
2024-01-16T05:46:51.295Z,22.74
2024-01-16T05:56:57.009Z,22.73
2024-01-16T06:07:02.533Z,22.65
2024-01-16T06:17:08.055Z,22.67
2024-01-16T06:27:13.477Z,22.66
2024-01-16T06:37:19.064Z,22.69
2024-01-16T06:47:24.518Z,22.69
2024-01-16T06:57:30.520Z,22.65
2024-01-16T07:07:35.786Z,22.65
2024-01-16T07:17:41.871Z,22.60
2024-01-16T07:27:47.614Z,22.61
2024-01-16T07:37:53.023Z,22.59
2024-01-16T07:47:58.758Z,22.59
2024-01-16T07:58:04.341Z,22.58
2024-01-16T08:08:09.761Z,22.59
2024-01-16T08:18:15.593Z,22.56
2024-01-16T08:28:23.420Z,22.57
2024-01-16T08:38:29.319Z,22.55
2024-01-16T08:48:34.809Z,22.55
2024-01-16T08:58:40.451Z,22.78
2024-01-16T09:08:46.066Z,22.88
2024-01-16T09:18:51.546Z,22.90
2024-01-16T09:28:56.990Z,22.90
2024-01-16T09:39:02.440Z,23.00
2024-01-16T09:49:08.331Z,23.01
2024-01-16T09:59:13.861Z,23.09
2024-01-16T10:09:19.435Z,23.03
2024-01-16T10:19:31.994Z,23.07
2024-01-16T10:29:43.527Z,23.03
2024-01-16T10:39:45.787Z,23.03
2024-01-16T10:49:51.559Z,23.05
2024-01-16T10:59:57.394Z,23.05
2024-01-16T11:10:02.853Z,23.13
2024-01-16T11:20:21.952Z,23.12
2024-01-16T11:30:18.891Z,23.14
2024-01-16T11:40:24.053Z,23.19
2024-01-16T11:50:29.754Z,23.21
2024-01-16T12:00:35.139Z,23.26
2024-01-16T12:10:40.685Z,23.28
2024-01-16T12:20:46.243Z,23.23
2024-01-16T12:30:52.080Z,23.27
2024-01-16T12:40:57.624Z,23.31
2024-01-16T12:51:03.092Z,23.27
2024-01-16T13:01:08.760Z,23.33
2024-01-16T13:11:13.895Z,23.31
2024-01-16T13:21:19.608Z,23.21
2024-01-16T13:31:24.927Z,23.21
2024-01-16T13:41:30.411Z,23.17
2024-01-16T13:51:36.434Z,23.28
2024-01-16T14:01:42.111Z,23.25
2024-01-16T14:11:48.491Z,23.28
2024-01-16T14:21:54.358Z,23.37
2024-01-16T14:31:59.713Z,23.31
2024-01-16T14:42:06.201Z,23.31
2024-01-16T14:52:11.659Z,23.37
2024-01-16T15:02:17.690Z,23.33
2024-01-16T15:12:23.121Z,23.35
2024-01-16T15:22:28.497Z,23.35
2024-01-16T15:32:34.259Z,23.33
2024-01-16T15:42:40.044Z,23.25
2024-01-16T15:52:45.689Z,23.25
2024-01-16T16:02:51.533Z,23.23
2024-01-16T16:12:58.021Z,23.24
2024-01-16T16:23:03.570Z,23.25
2024-01-16T16:33:08.999Z,23.25
2024-01-16T16:43:14.377Z,23.23
2024-01-16T16:53:20.254Z,23.20
2024-01-16T17:03:25.765Z,23.38
2024-01-16T17:13:31.255Z,23.28
2024-01-16T17:23:36.628Z,23.24
2024-01-16T17:33:42.818Z,23.32
2024-01-16T17:43:48.485Z,23.29
2024-01-16T17:53:54.108Z,23.26
2024-01-16T18:03:59.777Z,23.27
2024-01-16T18:14:05.091Z,23.33
2024-01-16T18:24:10.754Z,23.34
2024-01-16T18:34:16.337Z,23.28
2024-01-16T18:44:21.948Z,23.40
2024-01-16T18:54:27.209Z,23.39
2024-01-16T19:04:34.364Z,23.33
2024-01-16T19:14:39.967Z,23.42
2024-01-16T19:24:50.134Z,23.46
2024-01-16T19:34:55.454Z,23.52
2024-01-16T19:45:01.141Z,23.57
2024-01-16T19:55:06.396Z,23.57
2024-01-16T20:05:12.093Z,23.56
2024-01-16T20:15:18.413Z,23.60
2024-01-16T20:25:24.010Z,23.60
2024-01-16T20:35:29.528Z,23.58
2024-01-16T20:45:35.014Z,23.58
2024-01-16T20:55:40.447Z,23.44
2024-01-16T21:05:45.846Z,23.59
2024-01-16T21:15:51.199Z,23.42
2024-01-16T21:25:56.139Z,23.57
2024-01-16T21:36:02.250Z,23.57
2024-01-16T21:46:07.618Z,23.51
2024-01-16T21:56:12.690Z,23.58
2024-01-16T22:06:18.401Z,23.62
2024-01-16T22:16:23.678Z,23.54
2024-01-16T22:26:29.398Z,23.64
2024-01-16T22:36:35.292Z,23.65
2024-01-16T22:46:40.585Z,23.52
2024-01-16T22:56:46.152Z,23.39
2024-01-16T23:06:51.895Z,23.40
2024-01-16T23:16:57.508Z,23.36
2024-01-16T23:27:02.871Z,23.33
2024-01-16T23:37:08.422Z,23.36
2024-01-16T23:47:13.572Z,23.33
2024-01-16T23:57:18.927Z,23.34
